createdAt,value
2018-08-30T00:05:14.000Z,23.29
2018-08-30T00:15:14.000Z,23.25
2018-08-30T00:25:15.000Z,23.2
2018-08-30T00:35:14.000Z,23.17
2018-08-30T00:45:14.000Z,23.13
2018-08-30T00:55:14.000Z,23.1
2018-08-30T01:05:14.000Z,23.06
2018-08-30T01:15:14.000Z,23.02
2018-08-30T01:25:15.000Z,22.98
2018-08-30T01:35:15.000Z,22.93
2018-08-30T01:45:17.000Z,22.9
2018-08-30T01:55:15.000Z,22.88
2018-08-30T02:05:15.000Z,22.85
2018-08-30T02:15:16.000Z,22.82
2018-08-30T02:25:15.000Z,22.79
2018-08-30T02:35:15.000Z,22.78
2018-08-30T02:45:15.000Z,22.75
2018-08-30T02:55:15.000Z,22.72
2018-08-30T03:05:15.000Z,22.69
2018-08-30T03:15:15.000Z,22.68
2018-08-30T03:25:15.000Z,22.64
2018-08-30T03:35:15.000Z,22.63
2018-08-30T03:45:15.000Z,22.61
2018-08-30T03:55:15.000Z,22.57
2018-08-30T04:05:15.000Z,22.55
2018-08-30T04:15:15.000Z,22.52
2018-08-30T04:25:15.000Z,22.5
2018-08-30T04:35:15.000Z,22.48
2018-08-30T04:45:16.000Z,22.46
2018-08-30T04:55:15.000Z,22.45
2018-08-30T05:05:15.000Z,22.42
2018-08-30T05:15:15.000Z,22.41
2018-08-30T05:25:15.000Z,22.37
2018-08-30T05:35:15.000Z,22.36
2018-08-30T05:45:15.000Z,22.34
2018-08-30T05:55:15.000Z,22.34
2018-08-30T06:05:15.000Z,22.38
2018-08-30T06:15:15.000Z,22.35
2018-08-30T06:25:15.000Z,22.34
2018-08-30T06:35:15.000Z,22.34
2018-08-30T06:45:15.000Z,22.31
2018-08-30T06:55:15.000Z,22.33
2018-08-30T07:05:15.000Z,22.33
2018-08-30T07:15:15.000Z,22.31
2018-08-30T07:25:15.000Z,22.36
2018-08-30T07:35:15.000Z,22.4
2018-08-30T07:45:15.000Z,22.5
2018-08-30T07:55:15.000Z,22.62
2018-08-30T08:05:15.000Z,22.69
2018-08-30T08:15:15.000Z,22.77
2018-08-30T08:25:15.000Z,22.84
2018-08-30T08:35:15.000Z,22.89
2018-08-30T08:45:15.000Z,23.02
2018-08-30T08:55:15.000Z,23.09
2018-08-30T09:05:15.000Z,23.13
2018-08-30T09:15:15.000Z,23.28
2018-08-30T09:25:15.000Z,23.37
2018-08-30T09:35:16.000Z,23.43
2018-08-30T09:45:17.000Z,23.35
2018-08-30T09:55:16.000Z,23.33
2018-08-30T10:05:16.000Z,23.47
2018-08-30T10:15:16.000Z,23.59
2018-08-30T10:25:16.000Z,23.73
2018-08-30T10:35:16.000Z,23.9
2018-08-30T10:45:16.000Z,23.88
2018-08-30T10:55:16.000Z,24.02
2018-08-30T11:05:16.000Z,24.07
2018-08-30T11:15:16.000Z,24.07
2018-08-30T11:25:16.000Z,24.08
2018-08-30T11:35:16.000Z,24.19
2018-08-30T11:45:16.000Z,24.13
2018-08-30T11:55:16.000Z,24.1
2018-08-30T12:05:16.000Z,24.09
2018-08-30T12:15:16.000Z,24.15
2018-08-30T12:25:16.000Z,24.1
2018-08-30T12:35:16.000Z,24.24
2018-08-30T12:45:16.000Z,24.13
2018-08-30T12:55:16.000Z,24.06
2018-08-30T13:05:16.000Z,23.93
2018-08-30T13:15:16.000Z,23.89
2018-08-30T13:25:16.000Z,23.89
2018-08-30T13:35:16.000Z,23.9
2018-08-30T13:45:16.000Z,23.85
2018-08-30T13:55:16.000Z,23.8
2018-08-30T14:05:16.000Z,23.89
2018-08-30T14:15:16.000Z,23.82
2018-08-30T14:25:16.000Z,23.81
2018-08-30T14:35:16.000Z,23.79
2018-08-30T14:45:16.000Z,23.76
2018-08-30T14:55:16.000Z,23.8
2018-08-30T15:05:16.000Z,23.75
2018-08-30T15:15:16.000Z,23.74
2018-08-30T15:25:16.000Z,23.7
2018-08-30T15:35:16.000Z,23.69
2018-08-30T15:45:16.000Z,23.66
2018-08-30T15:55:16.000Z,23.6
2018-08-30T16:05:16.000Z,23.57
2018-08-30T16:15:16.000Z,23.59
2018-08-30T16:25:16.000Z,23.59
2018-08-30T16:35:16.000Z,23.57
2018-08-30T16:45:16.000Z,23.54
2018-08-30T16:55:16.000Z,23.5
2018-08-30T17:05:16.000Z,23.47
2018-08-30T17:15:16.000Z,23.44
2018-08-30T17:25:16.000Z,23.38
2018-08-30T17:35:16.000Z,23.38
2018-08-30T17:45:16.000Z,23.35
2018-08-30T17:55:17.000Z,23.3
2018-08-30T18:05:17.000Z,23.26
2018-08-30T18:15:17.000Z,23.22
2018-08-30T18:25:17.000Z,23.2
2018-08-30T18:35:17.000Z,23.2
2018-08-30T18:45:17.000Z,23.2
2018-08-30T18:55:17.000Z,23.19
2018-08-30T19:05:17.000Z,23.2
2018-08-30T19:15:17.000Z,23.17
2018-08-30T19:25:17.000Z,23.14
2018-08-30T19:35:17.000Z,23.09
2018-08-30T19:45:17.000Z,23.06
2018-08-30T19:55:17.000Z,23.1
2018-08-30T20:05:17.000Z,23.12
2018-08-30T20:15:17.000Z,23.12
2018-08-30T20:25:17.000Z,23.1
2018-08-30T20:35:17.000Z,23.09
2018-08-30T20:45:17.000Z,23
2018-08-30T21:05:17.000Z,22.99
2018-08-30T21:15:17.000Z,22.95
2018-08-30T21:25:17.000Z,22.91
2018-08-30T21:35:17.000Z,22.87
2018-08-30T21:45:17.000Z,22.84
2018-08-30T21:55:17.000Z,22.79
2018-08-30T22:05:17.000Z,22.74
2018-08-30T22:15:17.000Z,22.71
2018-08-30T22:25:17.000Z,22.66
2018-08-30T22:35:17.000Z,22.63
2018-08-30T22:45:17.000Z,22.59
2018-08-30T22:55:17.000Z,22.55
2018-08-30T23:05:17.000Z,22.5
2018-08-30T23:15:17.000Z,22.45
2018-08-30T23:25:17.000Z,22.41
2018-08-30T23:35:17.000Z,22.37
2018-08-30T23:45:17.000Z,22.32
2018-08-30T23:55:17.000Z,22.29
